Time;durP1;ratioP1;P1;durP2;ratioP2;P2;SDS_P1;SDS_P2;PMS_P1;PMS_P2;Temp;Humidity;BMP_temperature;BMP_pressure;BME280_temperature;BME280_humidity;BME280_pressure;Samples;Min_cycle;Max_cycle;Signal;HPM_P1;HPM_P2
2022/05/06 00:02:07;;;;;;;45.78;28.77;;;12.20;99.90;;;;;;5034691;28;20035;-56
2022/05/06 00:04:33;;;;;;;39.35;26.42;;;12.10;99.90;;;;;;5034876;28;20598;-56
2022/05/06 00:06:59;;;;;;;43.28;27.35;;;12.10;99.90;;;;;;5034230;28;20033;-57
2022/05/06 00:09:25;;;;;;;40.03;28.17;;;12.10;99.90;;;;;;5015255;28;20072;-56
2022/05/06 00:11:51;;;;;;;58.08;37.10;;;12.10;99.90;;;;;;5014602;28;20069;-56
2022/05/06 00:14:18;;;;;;;55.95;34.22;;;12.10;99.90;;;;;;5015546;28;20025;-56
2022/05/06 00:16:45;;;;;;;55.25;33.15;;;12.10;99.90;;;;;;5032328;28;20387;-56
2022/05/06 00:19:11;;;;;;;51.90;31.02;;;12.00;99.90;;;;;;5034679;28;20040;-56
2022/05/06 00:21:37;;;;;;;40.75;27.55;;;12.00;99.90;;;;;;5034551;28;20026;-57
2022/05/06 00:24:04;;;;;;;34.38;26.30;;;12.00;99.90;;;;;;5034700;28;20063;-56
2022/05/06 00:26:30;;;;;;;38.35;26.73;;;11.80;99.90;;;;;;5034575;28;20036;-56
2022/05/06 00:28:57;;;;;;;55.03;32.90;;;11.80;99.90;;;;;;5034545;28;20026;-56
2022/05/06 00:31:23;;;;;;;51.15;32.20;;;11.80;99.90;;;;;;5034454;28;20379;-56
2022/05/06 00:33:49;;;;;;;47.65;31.30;;;11.80;99.90;;;;;;5034462;28;20516;-57
2022/05/06 00:36:15;;;;;;;45.92;30.13;;;11.80;99.90;;;;;;5016645;28;20120;-56
2022/05/06 00:38:44;;;;;;;57.20;34.40;;;11.80;99.90;;;;;;5034503;28;20029;-56
2022/05/06 00:41:10;;;;;;;63.92;35.00;;;11.70;99.90;;;;;;5034589;28;20483;-56
2022/05/06 00:43:40;;;;;;;61.85;33.75;;;11.70;99.90;;;;;;5034157;28;20091;-57
2022/05/06 00:46:15;;;;;;;57.22;34.22;;;11.70;99.90;;;;;;5034526;28;20051;-56
2022/05/06 00:48:47;;;;;;;54.90;31.15;;;11.70;99.90;;;;;;5034515;28;20076;-57
2022/05/06 00:51:14;;;;;;;44.58;29.45;;;11.70;99.90;;;;;;5034216;28;20026;-56
2022/05/06 00:53:43;;;;;;;51.47;30.88;;;11.60;99.90;;;;;;5034408;28;20450;-56
2022/05/06 00:56:14;;;;;;;41.25;29.02;;;11.60;99.90;;;;;;5034346;28;20044;-56
2022/05/06 00:58:40;;;;;;;46.80;29.70;;;11.60;99.90;;;;;;5016303;28;20065;-56
2022/05/06 01:01:07;;;;;;;48.15;30.15;;;11.50;99.90;;;;;;5034350;28;20037;-56
2022/05/06 01:03:33;;;;;;;39.05;28.48;;;11.60;99.90;;;;;;5034221;28;20053;-56
2022/05/06 01:06:04;;;;;;;40.05;27.55;;;11.50;99.90;;;;;;5016296;28;20113;-56
2022/05/06 01:08:30;;;;;;;39.83;27.20;;;11.50;99.90;;;;;;5003484;28;20041;-56
2022/05/06 01:10:57;;;;;;;36.15;26.08;;;11.40;99.90;;;;;;4996097;28;20049;-57
2022/05/06 01:13:24;;;;;;;41.63;28.80;;;11.40;99.90;;;;;;5013505;28;20109;-56
2022/05/06 01:15:56;;;;;;;73.95;39.25;;;11.40;99.90;;;;;;4998324;28;20034;-56
2022/05/06 01:18:26;;;;;;;45.95;30.73;;;11.40;99.90;;;;;;4999205;28;20030;-57
2022/05/06 01:20:57;;;;;;;43.28;28.42;;;11.40;99.90;;;;;;4999198;28;20026;-56
2022/05/06 01:23:24;;;;;;;38.97;27.38;;;11.40;99.90;;;;;;4999189;28;20057;-56
2022/05/06 01:25:51;;;;;;;47.00;31.05;;;11.40;99.90;;;;;;5016727;28;20091;-56
2022/05/06 01:28:21;;;;;;;54.20;32.90;;;11.40;99.90;;;;;;5016817;28;20026;-56
2022/05/06 01:30:48;;;;;;;56.37;34.90;;;11.50;99.90;;;;;;5016661;28;20463;-57
2022/05/06 01:33:21;;;;;;;51.20;32.58;;;11.40;99.90;;;;;;5016930;28;20030;-56
2022/05/06 01:35:54;;;;;;;47.90;30.75;;;11.40;99.90;;;;;;5016442;28;20060;-57
2022/05/06 01:38:39;;;;;;;43.05;29.17;;;11.40;99.90;;;;;;4998825;28;20061;-56
2022/05/06 01:41:15;;;;;;;46.72;28.05;;;11.40;99.90;;;;;;4998762;28;20030;-56
2022/05/06 01:43:55;;;;;;;40.83;26.63;;;11.30;99.90;;;;;;4998820;28;20029;-56
2022/05/06 01:46:25;;;;;;;35.65;26.08;;;11.30;99.90;;;;;;4998704;28;20096;-56
2022/05/06 01:48:58;;;;;;;37.47;25.05;;;11.20;99.90;;;;;;4998788;28;20026;-56
2022/05/06 01:51:29;;;;;;;45.65;29.92;;;11.20;99.90;;;;;;4998685;28;20519;-56
2022/05/06 01:53:56;;;;;;;43.25;30.55;;;11.30;99.90;;;;;;4998684;28;20049;-56
2022/05/06 01:56:22;;;;;;;41.53;28.88;;;11.20;99.90;;;;;;4998695;28;20376;-57
2022/05/06 01:58:50;;;;;;;37.97;28.35;;;11.20;99.90;;;;;;4998659;28;20516;-56
2022/05/06 02:01:17;;;;;;;51.40;30.88;;;11.20;99.90;;;;;;4998570;28;20053;-56
2022/05/06 02:06:31;;;;;;;47.55;31.33;;;11.20;99.90;;;;;;4998481;28;20026;-57
2022/05/06 02:09:09;;;;;;;51.85;30.40;;;11.20;99.90;;;;;;4995042;28;20478;-56
2022/05/06 02:11:53;;;;;;;50.63;31.38;;;11.20;99.90;;;;;;4930724;28;1331906;-57
2022/05/06 02:14:20;;;;;;;43.50;29.55;;;11.20;99.90;;;;;;4960934;28;20035;-56
2022/05/06 02:17:21;;;;;;;39.72;28.83;;;11.10;99.90;;;;;;4972823;28;20031;-56
2022/05/06 02:19:59;;;;;;;41.53;29.40;;;11.10;99.90;;;;;;4960555;28;20440;-56
2022/05/06 02:22:48;;;;;;;44.08;27.55;;;11.20;99.90;;;;;;4994798;28;20035;-57
2022/05/06 02:25:35;;;;;;;40.30;28.98;;;11.10;99.90;;;;;;4966333;28;20050;-56
2022/05/06 02:28:18;;;;;;;38.78;28.65;;;11.20;99.90;;;;;;4960224;28;20709;-56
2022/05/06 02:33:43;;;;;;;43.28;28.77;;;11.20;99.90;;;;;;4992824;28;20134;-56
2022/05/06 02:36:18;;;;;;;41.95;28.45;;;11.20;99.90;;;;;;4992821;28;20034;-56
2022/05/06 02:38:44;;;;;;;38.63;28.48;;;11.20;99.90;;;;;;4992615;28;20031;-57
2022/05/06 02:41:16;;;;;;;41.28;28.40;;;11.20;99.90;;;;;;4992780;28;20027;-56
2022/05/06 02:43:51;;;;;;;40.53;29.63;;;11.20;99.90;;;;;;4960092;28;20035;-56
2022/05/06 02:46:18;;;;;;;38.53;27.35;;;11.20;99.90;;;;;;4960220;28;20030;-57
2022/05/06 02:48:45;;;;;;;36.55;26.48;;;11.20;99.90;;;;;;4960196;28;20088;-56
2022/05/06 02:51:13;;;;;;;40.83;27.63;;;11.10;99.90;;;;;;4992444;28;20493;-56
2022/05/06 02:53:41;;;;;;;38.13;27.23;;;11.20;99.90;;;;;;4992509;28;20027;-56
2022/05/06 02:56:08;;;;;;;38.05;26.77;;;11.20;99.90;;;;;;4992206;28;20042;-56
2022/05/06 02:58:46;;;;;;;33.83;24.30;;;11.10;99.90;;;;;;4959808;28;20037;-57
2022/05/06 03:01:13;;;;;;;34.63;24.65;;;11.10;99.90;;;;;;4992363;28;20039;-57
2022/05/06 03:03:41;;;;;;;31.52;23.58;;;11.10;99.90;;;;;;4959871;28;20046;-56
2022/05/06 03:06:14;;;;;;;31.25;22.95;;;11.10;99.90;;;;;;4992024;28;20027;-57
2022/05/06 03:08:40;;;;;;;37.13;25.83;;;11.10;99.90;;;;;;4990921;28;20022;-57
2022/05/06 03:11:08;;;;;;;40.58;27.48;;;11.10;99.90;;;;;;4978826;28;20070;-57
2022/05/06 03:13:42;;;;;;;43.28;29.40;;;11.10;99.90;;;;;;4996610;28;20030;-57
2022/05/06 03:16:11;;;;;;;41.20;27.92;;;11.20;99.90;;;;;;5004699;28;20029;-57
2022/05/06 03:18:37;;;;;;;45.83;29.13;;;11.00;99.90;;;;;;5017984;28;20040;-57
2022/05/06 03:21:03;;;;;;;44.65;27.77;;;11.00;99.90;;;;;;5035653;28;20040;-57
2022/05/06 03:23:30;;;;;;;43.05;28.38;;;11.00;99.90;;;;;;5017762;28;20054;-57
2022/05/06 03:25:55;;;;;;;42.42;27.80;;;11.00;99.90;;;;;;5018030;28;20072;-57
2022/05/06 03:28:21;;;;;;;38.70;26.98;;;11.00;99.90;;;;;;5035513;28;20109;-57
2022/05/06 03:30:48;;;;;;;37.13;25.70;;;10.90;99.90;;;;;;5017783;28;20026;-57
2022/05/06 03:33:36;;;;;;;35.85;25.58;;;11.00;99.90;;;;;;5017811;28;20483;-57
2022/05/06 03:36:16;;;;;;;34.40;23.95;;;11.00;99.90;;;;;;5017736;28;20032;-57
2022/05/06 03:38:51;;;;;;;29.17;23.10;;;10.90;99.90;;;;;;5017357;28;20025;-57
2022/05/06 03:41:19;;;;;;;30.75;23.73;;;10.90;99.90;;;;;;5017521;28;20116;-57
2022/05/06 03:43:49;;;;;;;31.55;23.35;;;11.00;99.90;;;;;;5017420;28;20061;-56
2022/05/06 03:46:19;;;;;;;32.70;23.08;;;11.00;99.90;;;;;;5017553;28;20025;-57
2022/05/06 03:48:46;;;;;;;31.48;23.33;;;10.90;99.90;;;;;;5017491;28;20480;-57
2022/05/06 03:51:23;;;;;;;31.08;23.38;;;10.80;99.90;;;;;;5017478;28;20025;-57
2022/05/06 03:54:07;;;;;;;32.53;23.27;;;10.80;99.90;;;;;;5017265;28;20071;-57
2022/05/06 03:56:33;;;;;;;29.30;22.33;;;10.80;99.90;;;;;;5017185;28;20033;-57
2022/05/06 03:59:04;;;;;;;31.50;24.17;;;10.80;99.90;;;;;;5017356;28;20453;-57
2022/05/06 04:01:31;;;;;;;31.98;23.30;;;10.90;99.90;;;;;;5017334;28;20029;-57
2022/05/06 04:03:58;;;;;;;30.00;22.67;;;10.90;99.90;;;;;;5017214;28;20434;-56
2022/05/06 04:06:29;;;;;;;30.45;23.15;;;10.90;99.90;;;;;;5017269;28;20346;-57
2022/05/06 04:08:57;;;;;;;35.05;23.20;;;10.90;99.90;;;;;;4997351;28;20502;-57
2022/05/06 04:11:27;;;;;;;27.17;21.85;;;11.00;99.90;;;;;;4994054;28;20404;-57
2022/05/06 04:13:58;;;;;;;31.38;22.50;;;10.90;99.90;;;;;;4994314;28;20030;-56
2022/05/06 04:16:27;;;;;;;32.47;22.83;;;11.00;99.90;;;;;;5023708;28;20108;-56
2022/05/06 04:18:55;;;;;;;31.63;23.15;;;11.00;99.90;;;;;;5016890;28;20064;-57
2022/05/06 04:24:09;;;;;;;38.45;24.10;;;11.00;99.90;;;;;;5016846;28;20037;-57
2022/05/06 04:26:36;;;;;;;42.83;24.50;;;11.00;99.90;;;;;;5016876;28;20079;-56
2022/05/06 04:29:03;;;;;;;37.15;23.65;;;11.10;99.90;;;;;;5016739;28;20368;-57
2022/05/06 04:31:32;;;;;;;34.10;22.45;;;11.10;99.90;;;;;;5017096;28;20039;-57
2022/05/06 04:34:02;;;;;;;45.95;25.88;;;11.10;99.90;;;;;;5016737;28;20026;-56
2022/05/06 04:36:33;;;;;;;39.40;25.92;;;11.20;99.90;;;;;;5034468;28;20113;-57
2022/05/06 04:39:04;;;;;;;37.70;24.50;;;11.20;99.90;;;;;;5016658;28;20042;-56
2022/05/06 04:41:32;;;;;;;56.58;31.08;;;11.30;99.90;;;;;;5016643;28;20504;-56
2022/05/06 04:43:59;;;;;;;47.80;29.10;;;11.30;99.90;;;;;;5016579;28;20538;-57
2022/05/06 04:46:29;;;;;;;56.60;29.45;;;11.30;99.90;;;;;;5016589;28;20026;-57
2022/05/06 04:48:56;;;;;;;61.10;29.38;;;11.40;99.90;;;;;;5016112;28;20542;-56
2022/05/06 04:51:22;;;;;;;46.55;27.88;;;11.50;99.90;;;;;;5016413;28;20025;-57
2022/05/06 04:53:52;;;;;;;41.15;28.10;;;11.50;99.90;;;;;;5016646;28;20552;-57
2022/05/06 04:56:18;;;;;;;50.70;28.75;;;11.50;99.90;;;;;;5016117;28;20120;-57
2022/05/06 04:58:44;;;;;;;47.30;27.95;;;11.60;99.90;;;;;;5016725;28;20621;-56
2022/05/06 05:01:17;;;;;;;42.20;26.88;;;11.60;99.90;;;;;;5016657;28;20084;-57
2022/05/06 05:03:45;;;;;;;49.00;27.17;;;11.70;99.90;;;;;;5016288;28;20391;-57
2022/05/06 05:06:11;;;;;;;43.17;27.17;;;11.70;99.90;;;;;;5034015;28;20123;-57
2022/05/06 05:08:39;;;;;;;51.78;29.17;;;11.80;99.90;;;;;;4999013;28;20054;-57
2022/05/06 05:11:05;;;;;;;61.92;29.83;;;11.90;99.90;;;;;;4977176;28;20077;-57
2022/05/06 05:13:40;;;;;;;51.30;29.25;;;12.00;99.90;;;;;;4977167;28;20061;-57
2022/05/06 05:16:13;;;;;;;48.60;27.17;;;12.00;99.90;;;;;;5003344;28;20026;-57
2022/05/06 05:18:39;;;;;;;48.00;25.92;;;12.10;99.90;;;;;;5016250;28;20037;-57
2022/05/06 05:21:05;;;;;;;43.53;24.77;;;12.20;99.90;;;;;;5034003;28;20036;-57
2022/05/06 05:23:31;;;;;;;34.50;24.42;;;12.20;99.90;;;;;;5002099;28;20464;-57
2022/05/06 05:25:59;;;;;;;41.83;25.02;;;12.30;99.90;;;;;;4985643;28;20084;-57
2022/05/06 05:28:26;;;;;;;33.83;23.15;;;12.40;99.90;;;;;;4987901;28;20037;-57
2022/05/06 05:30:52;;;;;;;28.30;21.30;;;12.40;99.90;;;;;;5002705;28;20017;-57
2022/05/06 05:33:18;;;;;;;32.80;22.25;;;12.50;99.90;;;;;;5000922;28;20116;-57
2022/05/06 05:35:49;;;;;;;37.10;21.42;;;12.60;99.90;;;;;;5003062;28;20034;-57
2022/05/06 05:38:16;;;;;;;36.85;22.23;;;12.70;99.90;;;;;;5013837;28;20037;-57
2022/05/06 05:40:42;;;;;;;38.83;24.05;;;12.80;99.90;;;;;;4996209;28;20034;-57
2022/05/06 05:48:19;;;;;;;37.65;23.58;;;12.90;99.90;;;;;;5007905;28;20044;-53
2022/05/06 05:48:44;;;;;;;46.20;25.77;;;13.10;99.90;;;;;;4993162;28;20034;-53
2022/05/06 05:51:10;;;;;;;62.17;25.20;;;13.20;99.90;;;;;;4993026;28;20493;-53
2022/05/06 05:53:45;;;;;;;46.20;26.23;;;13.30;99.90;;;;;;4993072;28;20026;-53
2022/05/06 05:56:12;;;;;;;51.90;28.73;;;13.40;99.90;;;;;;4976646;28;20084;-53
2022/05/06 05:58:39;;;;;;;43.90;28.13;;;13.40;99.90;;;;;;4976678;28;20073;-53
2022/05/06 06:01:08;;;;;;;79.22;31.67;;;13.50;99.90;;;;;;4994159;28;20030;-53
2022/05/06 06:03:37;;;;;;;50.42;30.17;;;13.50;99.90;;;;;;4996313;28;20035;-53
2022/05/06 06:06:06;;;;;;;51.28;29.58;;;13.60;99.90;;;;;;4996190;28;20041;-54
2022/05/06 06:08:32;;;;;;;45.95;27.73;;;13.80;99.90;;;;;;4996339;28;20058;-53
2022/05/06 06:11:03;;;;;;;40.17;26.92;;;13.80;99.90;;;;;;4986703;28;20042;-53
2022/05/06 06:13:35;;;;;;;43.80;25.55;;;13.90;99.90;;;;;;4965448;28;20039;-53
2022/05/06 06:16:03;;;;;;;47.40;27.27;;;14.10;99.90;;;;;;4971723;28;20449;-53
2022/05/06 06:18:29;;;;;;;42.25;24.98;;;14.20;99.90;;;;;;4973235;28;20094;-53
2022/05/06 06:20:58;;;;;;;39.55;23.42;;;14.40;99.90;;;;;;4960587;28;20023;-53
2022/05/06 06:23:25;;;;;;;40.25;23.77;;;14.50;99.90;;;;;;4965563;28;20022;-53
2022/05/06 06:25:52;;;;;;;46.75;25.80;;;14.60;99.90;;;;;;4967154;28;20034;-53
2022/05/06 06:28:19;;;;;;;39.80;23.73;;;14.60;99.90;;;;;;4968519;28;20023;-54
2022/05/06 06:30:46;;;;;;;44.08;24.33;;;14.70;99.90;;;;;;4969944;28;20026;-53
2022/05/06 06:33:14;;;;;;;47.15;23.73;;;14.80;99.90;;;;;;4974683;28;20030;-54
2022/05/06 06:35:40;;;;;;;57.22;23.38;;;14.70;99.90;;;;;;4977053;28;20129;-53
2022/05/06 06:38:07;;;;;;;42.25;22.85;;;14.80;99.90;;;;;;4974942;28;20125;-52
2022/05/06 06:40:37;;;;;;;34.08;21.25;;;14.90;99.90;;;;;;4976423;28;20038;-52
2022/05/06 06:43:04;;;;;;;37.38;20.98;;;15.00;99.90;;;;;;4998238;28;20026;-52
2022/05/06 06:45:59;;;;;;;40.55;21.52;;;15.20;99.90;;;;;;4977915;28;20070;-53
2022/05/06 06:48:52;;;;;;;37.70;24.35;;;15.40;99.90;;;;;;4973102;28;20034;-52
2022/05/06 06:51:42;;;;;;;55.10;26.58;;;15.50;99.90;;;;;;4979799;28;20026;-52
2022/05/06 06:54:08;;;;;;;56.83;25.00;;;15.60;99.90;;;;;;4997297;28;20469;-52
2022/05/06 06:56:34;;;;;;;56.75;26.15;;;15.70;99.90;;;;;;4997469;28;20026;-53
2022/05/06 06:59:00;;;;;;;45.65;25.35;;;15.70;99.90;;;;;;4997446;28;20022;-53
2022/05/06 07:01:32;;;;;;;41.50;23.10;;;15.70;99.90;;;;;;4996727;28;20029;-52
2022/05/06 07:04:00;;;;;;;49.38;23.45;;;15.80;99.90;;;;;;4996321;28;20038;-53
2022/05/06 07:11:56;;;;;;;44.17;26.48;;;16.30;99.90;;;;;;5012094;28;20046;-53
2022/05/06 07:14:35;;;;;;;50.20;25.88;;;16.40;99.90;;;;;;5015445;28;20373;-53
2022/05/06 07:17:05;;;;;;;54.55;27.23;;;16.50;99.90;;;;;;5010300;28;20030;-53
2022/05/06 07:19:32;;;;;;;45.85;25.52;;;16.70;99.90;;;;;;5004141;28;20034;-52
2022/05/06 07:21:58;;;;;;;44.05;25.55;;;16.90;99.90;;;;;;5005568;28;20038;-52
2022/05/06 07:24:25;;;;;;;40.95;24.23;;;17.10;99.90;;;;;;5014768;28;20041;-53
2022/05/06 07:26:53;;;;;;;46.97;26.73;;;17.10;99.90;;;;;;5031052;28;20030;-53
2022/05/06 07:29:20;;;;;;;57.55;29.08;;;17.20;99.90;;;;;;5009193;28;20456;-53
2022/05/06 07:31:47;;;;;;;46.55;29.90;;;17.40;99.90;;;;;;5008680;28;20041;-52
2022/05/06 07:34:15;;;;;;;53.17;28.75;;;17.50;99.90;;;;;;5006291;28;20041;-52
2022/05/06 07:36:42;;;;;;;57.03;29.30;;;17.60;99.90;;;;;;5008790;28;20117;-53
2022/05/06 07:39:12;;;;;;;58.28;29.25;;;17.50;99.90;;;;;;5009572;28;20121;-53
2022/05/06 07:41:38;;;;;;;53.97;26.85;;;17.70;99.90;;;;;;5009542;28;20030;-53
2022/05/06 07:44:09;;;;;;;51.78;22.23;;;17.90;99.90;;;;;;5003511;28;20383;-52
2022/05/06 07:46:36;;;;;;;52.33;21.67;;;18.10;99.90;;;;;;5012205;28;20034;-52
2022/05/06 07:49:03;;;;;;;43.50;20.55;;;18.30;99.90;;;;;;5009118;28;20026;-54
2022/05/06 07:51:32;;;;;;;48.15;21.42;;;18.40;99.90;;;;;;5009576;28;20042;-53
2022/05/06 07:53:58;;;;;;;55.78;23.52;;;18.40;99.90;;;;;;5009408;28;20045;-54
2022/05/06 07:56:26;;;;;;;39.80;20.20;;;18.50;99.90;;;;;;5008031;28;20030;-53
2022/05/06 07:58:56;;;;;;;50.25;21.33;;;18.70;99.90;;;;;;5003028;28;20042;-54
2022/05/06 08:06:53;;;;;;;55.95;20.80;;;18.80;99.90;;;;;;5008100;28;20447;-54
2022/05/06 08:09:20;;;;;;;55.40;21.00;;;19.00;99.90;;;;;;5001329;28;20030;-54
2022/05/06 08:11:47;;;;;;;51.10;20.92;;;19.10;99.90;;;;;;5001601;28;20105;-54
2022/05/06 08:14:16;;;;;;;44.03;20.08;;;19.10;99.90;;;;;;5011687;28;20422;-54
2022/05/06 08:16:46;;;;;;;34.97;19.08;;;19.40;99.90;;;;;;5005746;28;20029;-54
2022/05/06 08:19:13;;;;;;;36.38;19.02;;;19.50;99.70;;;;;;5012237;28;20551;-54
2022/05/06 08:21:39;;;;;;;40.50;19.50;;;19.60;99.90;;;;;;5008939;28;20381;-54
2022/05/06 08:24:09;;;;;;;36.35;19.15;;;19.90;99.60;;;;;;5007318;28;20034;-54
2022/05/06 08:26:35;;;;;;;43.75;17.85;;;20.10;99.20;;;;;;5004418;28;20510;-54
2022/05/06 08:29:03;;;;;;;46.33;20.98;;;20.30;98.90;;;;;;5007411;28;20022;-54
2022/05/06 08:31:32;;;;;;;28.40;16.90;;;20.60;97.50;;;;;;5013206;28;20025;-54
2022/05/06 08:33:58;;;;;;;30.23;15.20;;;20.60;96.50;;;;;;5007468;28;20026;-54
2022/05/06 08:36:24;;;;;;;37.88;16.55;;;20.80;97.50;;;;;;5005128;28;20427;-54
2022/05/06 08:38:50;;;;;;;23.30;13.05;;;21.20;95.60;;;;;;5009574;28;20042;-54
2022/05/06 08:41:19;;;;;;;22.55;13.93;;;21.30;91.90;;;;;;5004409;28;20084;-54
2022/05/06 08:43:45;;;;;;;20.58;13.82;;;21.50;94.40;;;;;;4987120;28;20038;-54
2022/05/06 08:50:50;;;;;;;27.15;12.40;;;21.80;91.20;;;;;;5003185;28;20042;-54
2022/05/06 08:51:47;;;;;;;29.50;13.48;;;21.90;80.70;;;;;;5005191;28;20022;-54
2022/05/06 08:54:15;;;;;;;24.10;12.70;;;22.00;91.20;;;;;;5009962;28;20041;-54
2022/05/06 08:56:42;;;;;;;34.90;13.82;;;22.00;76.20;;;;;;5011657;28;20065;-54
2022/05/06 08:59:08;;;;;;;30.00;13.93;;;21.60;90.90;;;;;;5001083;28;21093;-52
2022/05/06 09:01:34;;;;;;;35.17;13.32;;;21.70;90.90;;;;;;5005276;28;20029;-52
2022/05/06 09:04:00;;;;;;;31.75;12.90;;;21.90;93.20;;;;;;5006081;28;20124;-53
2022/05/06 09:06:29;;;;;;;38.55;14.68;;;22.30;90.90;;;;;;5008835;28;20026;-52
2022/05/06 09:08:59;;;;;;;15.10;10.77;;;22.40;78.20;;;;;;5006985;28;20022;-53
2022/05/06 09:16:39;;;;;;;29.70;13.07;;;22.80;68.30;;;;;;5011129;28;19909;-53
2022/05/06 09:17:23;;;;;;;26.55;12.70;;;22.80;70.80;;;;;;5004904;28;20121;-54
2022/05/06 09:19:49;;;;;;;27.08;13.13;;;22.50;71.10;;;;;;5006895;28;20067;-54
2022/05/06 09:22:16;;;;;;;37.17;27.33;;;22.30;78.20;;;;;;5001925;28;20030;-52
2022/05/06 09:24:44;;;;;;;19.83;11.18;;;22.40;68.20;;;;;;5007735;28;20045;-52
2022/05/06 09:27:14;;;;;;;16.95;9.80;;;22.60;65.30;;;;;;5007559;28;20030;-52
2022/05/06 09:29:41;;;;;;;;;;;22.90;63.40;;;;;;5001155;28;20030;-53
2022/05/06 09:32:16;;;;;;;15.48;9.43;;;22.70;61.90;;;;;;5003645;28;20348;-52
2022/05/06 09:34:43;;;;;;;16.20;9.18;;;22.80;59.60;;;;;;5003025;28;20352;-53
2022/05/06 09:37:10;;;;;;;32.03;9.73;;;22.80;66.50;;;;;;5006984;28;20113;-52
2022/05/06 09:39:39;;;;;;;16.38;9.70;;;22.90;62.10;;;;;;5006592;28;20031;-52
2022/05/06 09:42:06;;;;;;;21.85;9.68;;;23.00;58.70;;;;;;5004438;28;20053;-53
2022/05/06 09:44:33;;;;;;;20.48;11.27;;;23.10;59.70;;;;;;5016948;28;20050;-53
2022/05/06 09:47:12;;;;;;;30.38;11.63;;;23.00;59.00;;;;;;5005398;28;20026;-52
2022/05/06 09:49:44;;;;;;;20.38;10.10;;;23.20;68.40;;;;;;5008302;28;20026;-52
2022/05/06 09:52:14;;;;;;;28.70;11.40;;;23.20;57.00;;;;;;5017094;28;20046;-53
2022/05/06 09:54:42;;;;;;;14.55;9.00;;;23.20;59.80;;;;;;5017429;28;20037;-53
2022/05/06 09:57:12;;;;;;;18.88;9.52;;;23.20;56.30;;;;;;5017314;28;20096;-52
2022/05/06 09:59:39;;;;;;;28.15;9.85;;;23.10;56.40;;;;;;5017624;28;20579;-52
2022/05/06 10:02:05;;;;;;;33.25;11.85;;;23.20;57.00;;;;;;5017574;28;20533;-52
2022/05/06 10:04:32;;;;;;;33.85;12.68;;;23.20;56.90;;;;;;5017367;28;20029;-54
2022/05/06 10:07:00;;;;;;;21.10;9.10;;;23.10;53.80;;;;;;4988763;28;20035;-54
2022/05/06 10:09:29;;;;;;;25.38;11.00;;;23.00;55.60;;;;;;5017708;28;20032;-54
2022/05/06 10:11:58;;;;;;;35.17;12.82;;;23.20;57.20;;;;;;5017777;28;20045;-54
2022/05/06 10:14:25;;;;;;;23.48;10.32;;;23.20;55.90;;;;;;5017666;28;20065;-54
2022/05/06 10:16:51;;;;;;;24.95;9.80;;;23.50;61.30;;;;;;5035954;28;20029;-54
2022/05/06 10:19:44;;;;;;;22.23;9.93;;;23.50;52.60;;;;;;5037433;28;20021;-54
2022/05/06 10:22:10;;;;;;;29.58;12.20;;;23.50;52.60;;;;;;5037483;28;20103;-53
2022/05/06 10:24:49;;;;;;;27.02;8.98;;;23.50;55.50;;;;;;5017364;28;20665;-54
2022/05/06 10:33:19;;;;;;;15.75;7.95;;;24.00;51.30;;;;;;5007358;28;20080;-54
2022/05/06 10:35:47;;;;;;;19.67;7.22;;;24.00;51.30;;;;;;5007733;28;20030;-54
2022/05/06 10:38:24;;;;;;;16.15;7.63;;;24.10;48.90;;;;;;4993025;28;20061;-54
2022/05/06 10:40:54;;;;;;;12.73;6.53;;;24.20;48.60;;;;;;5005975;28;20053;-53
2022/05/06 10:43:41;;;;;;;14.48;7.07;;;24.40;48.40;;;;;;5011965;28;20033;-53
2022/05/06 10:46:10;;;;;;;11.38;6.53;;;24.50;49.20;;;;;;5006831;28;20022;-53
2022/05/06 10:48:36;;;;;;;16.45;7.90;;;24.50;48.20;;;;;;5007080;28;20149;-53
2022/05/06 10:51:22;;;;;;;26.00;8.45;;;24.40;47.30;;;;;;5006901;28;20026;-53
2022/05/06 10:53:49;;;;;;;10.23;6.82;;;24.50;50.00;;;;;;5002089;28;20026;-53
2022/05/06 10:56:15;;;;;;;56.95;13.38;;;24.40;47.00;;;;;;5013107;28;20026;-53
2022/05/06 10:58:41;;;;;;;16.35;9.07;;;24.70;49.20;;;;;;5016065;28;20380;-53
2022/05/06 11:01:16;;;;;;;20.17;8.90;;;24.70;48.90;;;;;;5009168;28;20091;-53
2022/05/06 11:03:54;;;;;;;18.85;9.02;;;24.80;50.30;;;;;;4982093;28;20033;-53
2022/05/06 11:06:24;;;;;;;30.42;10.35;;;25.10;53.50;;;;;;5001760;28;20473;-53
2022/05/06 11:08:51;;;;;;;16.37;8.13;;;25.00;50.40;;;;;;5000580;28;20030;-52
2022/05/06 11:11:19;;;;;;;30.33;10.80;;;25.10;50.50;;;;;;5002801;28;20284;-53
2022/05/06 11:13:47;;;;;;;18.52;8.20;;;25.10;49.80;;;;;;4996318;28;20057;-53
2022/05/06 11:16:17;;;;;;;14.65;8.43;;;25.20;46.80;;;;;;5013046;28;20022;-53
2022/05/06 11:18:48;;;;;;;26.08;10.85;;;25.20;50.20;;;;;;5010040;28;20069;-53
2022/05/06 11:21:23;;;;;;;15.05;7.70;;;25.50;49.00;;;;;;5018320;28;20018;-53
2022/05/06 11:23:53;;;;;;;20.85;12.68;;;25.80;45.40;;;;;;5015966;28;20046;-53
2022/05/06 11:26:32;;;;;;;13.27;6.30;;;25.90;47.20;;;;;;5015707;28;20034;-53
2022/05/06 11:29:05;;;;;;;14.02;7.03;;;26.20;45.40;;;;;;5015601;28;20346;-53
2022/05/06 11:31:33;;;;;;;20.88;9.18;;;25.90;43.00;;;;;;5015277;28;20018;-53
2022/05/06 11:34:07;;;;;;;49.47;14.50;;;25.90;43.00;;;;;;5013547;28;20018;-53
2022/05/06 11:36:34;;;;;;;34.80;9.88;;;26.10;44.10;;;;;;5008848;28;20418;-53
2022/05/06 11:39:11;;;;;;;17.42;7.72;;;26.30;47.40;;;;;;5013405;28;20223;-53
2022/05/06 11:41:37;;;;;;;24.63;9.02;;;26.50;43.40;;;;;;5005672;28;20025;-53
2022/05/06 11:44:05;;;;;;;13.15;6.90;;;26.50;41.40;;;;;;5003580;28;20124;-53
2022/05/06 11:49:25;;;;;;;18.58;7.57;;;26.20;41.40;;;;;;5010456;28;20029;-53
2022/05/06 11:51:52;;;;;;;29.35;10.30;;;26.40;44.40;;;;;;5000739;28;20027;-53
2022/05/06 11:54:22;;;;;;;28.17;10.05;;;26.60;42.00;;;;;;5000624;28;20420;-53
2022/05/06 11:56:50;;;;;;;22.75;7.40;;;26.70;43.00;;;;;;5013427;28;20149;-53
2022/05/06 11:59:20;;;;;;;16.83;6.18;;;26.70;42.90;;;;;;5006598;28;20034;-52
2022/05/06 12:01:47;;;;;;;17.08;7.25;;;26.60;42.40;;;;;;5017589;28;20034;-52
2022/05/06 12:04:19;;;;;;;24.23;8.63;;;26.50;43.10;;;;;;5008816;28;20504;-52
2022/05/06 12:06:52;;;;;;;15.85;6.20;;;26.20;42.30;;;;;;5013352;28;20040;-52
2022/05/06 12:09:22;;;;;;;11.13;5.05;;;26.30;44.40;;;;;;5014715;28;20021;-52
2022/05/06 12:12:04;;;;;;;35.65;7.22;;;26.00;41.70;;;;;;5007386;28;20038;-52
2022/05/06 12:14:30;;;;;;;13.82;5.85;;;26.00;41.50;;;;;;5001274;28;20961;-52
2022/05/06 12:17:01;;;;;;;42.03;8.35;;;26.00;40.30;;;;;;5021082;28;20025;-52
2022/05/06 12:19:40;;;;;;;26.13;8.88;;;25.70;41.50;;;;;;4989197;28;20033;-52
2022/05/06 12:22:14;;;;;;;32.45;7.75;;;25.50;44.30;;;;;;5008051;28;20169;-53
2022/05/06 12:24:40;;;;;;;10.85;5.40;;;25.60;44.10;;;;;;5011123;28;20041;-53
2022/05/06 12:27:09;;;;;;;13.10;5.93;;;25.50;41.40;;;;;;5013892;28;20021;-53
2022/05/06 12:29:42;;;;;;;18.30;6.75;;;25.10;44.70;;;;;;5012477;28;20057;-53
2022/05/06 12:32:08;;;;;;;17.00;6.13;;;25.10;44.70;;;;;;5013156;28;20021;-53
2022/05/06 12:34:34;;;;;;;22.05;7.30;;;24.80;42.10;;;;;;5011581;28;20037;-53
2022/05/06 13:17:10;;;;;;;14.60;5.30;;;24.30;42.80;;;;;;5015161;28;20188;-53
2022/05/06 13:19:36;;;;;;;14.50;6.03;;;24.00;45.10;;;;;;5002361;28;20036;-53
2022/05/06 13:22:02;;;;;;;21.40;6.00;;;23.80;45.70;;;;;;5012387;28;20499;-53
2022/05/06 13:24:28;;;;;;;10.35;4.35;;;23.80;46.00;;;;;;5013940;28;20081;-53
2022/05/06 13:26:54;;;;;;;13.43;5.22;;;23.80;46.80;;;;;;4998469;28;20034;-53
2022/05/06 13:29:20;;;;;;;21.48;6.45;;;23.80;46.20;;;;;;4998608;28;20065;-53
2022/05/06 13:31:47;;;;;;;11.90;5.07;;;23.90;45.80;;;;;;4998363;28;20023;-53
2022/05/06 13:34:12;;;;;;;9.98;5.25;;;23.90;46.30;;;;;;4998542;28;20058;-53
2022/05/06 13:36:38;;;;;;;21.00;6.90;;;24.00;46.10;;;;;;4998425;28;20510;-53
2022/05/06 13:39:04;;;;;;;13.02;6.75;;;24.30;45.20;;;;;;4998255;28;20487;-53
2022/05/06 13:41:30;;;;;;;38.78;7.88;;;24.50;46.90;;;;;;4998239;28;20026;-53
2022/05/06 13:43:56;;;;;;;35.53;9.95;;;24.50;48.20;;;;;;4998184;28;20023;-53
2022/05/06 13:46:22;;;;;;;23.83;7.93;;;24.30;49.00;;;;;;4998208;28;20030;-53
2022/05/06 13:48:48;;;;;;;23.92;9.85;;;24.10;51.60;;;;;;4998333;28;20026;-53
2022/05/06 13:51:14;;;;;;;11.05;6.47;;;23.80;53.60;;;;;;4998286;28;20399;-53
2022/05/06 13:53:40;;;;;;;16.27;8.27;;;23.90;54.00;;;;;;4998099;28;20038;-53
2022/05/06 13:59:06;;;;;;;12.68;6.32;;;23.50;55.20;;;;;;4997817;28;20484;-53
2022/05/06 14:01:36;;;;;;;10.20;6.40;;;23.20;55.50;;;;;;4997938;28;20057;-53
2022/05/06 14:04:04;;;;;;;10.43;6.63;;;23.10;58.70;;;;;;4997834;28;20030;-53